Portada
METAR-TAF:

METAR-TAF

Aeropuertos :

Aeropuerto Internacional Ramon

Eilat, Israel

latitud: 29-43-25N, longitud: 35-00-41E, altitud: 88 m

Observación

El informe se hizo hace 51 minutos, a las 11:50 UTC
Viento 7 kt del norte-noroeste
Temperatura 33°C
Humedad 13%
Presión 1011 hPa
Visibilidad 10 km o más
sin nubes por debajo de 1500 m y sin presencia de cumulonimbus.

METAR: LLER 041150Z 34007KT CAVOK 33/01 Q1011

Hora: 15:41 (12:41 UTC)

Pronóstico

El informe se hizo hace 1 hora y 33 minutos, a las 11:08 UTC
Pronóstico válido del 04 a las 12 UTC al 05 a las 12 UTC
Viento 7 kt del sur
Visibilidad 10 km o más
sin nubes por debajo de 1500 m y sin presencia de cumulonimbus.
Temporalmente
del 04 a las 12 UTC al 04 a las 18 UTC
Viento 12 kt del norte
Temporalmente
del 05 a las 09 UTC al 05 a las 12 UTC
Viento 15 kt del sur

TAF: LLER 041108Z 0412/0512 18007KT CAVOK TEMPO 0412/0418 36012KT TEMPO 0509/0512 18015KT TX34/0412Z TN23/0503Z

Observaciones y pronósticos meteorológicos de más de 4000 aeropuertos (mensajes METAR y TAF).

Los puntos amarillos y rojos representan las estaciones disponibles.

Ponga el ratón en el punto deseado para ver el nombre de la estación.

Haga clic para ver las observaciones y los pronósticos meteorológicos.

Para cambiar el mapa : haga clic en los botones verdes con una cruz de color negro para hacer un zoom, en el botón verde con un guión para alejar o en las flechas verdes para mapas adyacentes.


METAR-TAF: